ENHD Airport Information

Runway Information
Runway 14 Length 6957 ft width 148 ft
Elevation 61 ft Threshold 197 ft Heading 134
Runway 32 Length 6957 ft Width 148 ft
Elevation 86 ft Threshold 197 ft Heading 314
Airport Frequencies
Type ATIS Name ATIS Frequency 118.175 MHZ
Type TWR Name TWR Frequency 120.5 MHZ
Airport Navaids
Type VOR-DME Name Karmoy Frequency 115150 KHZ
Airport Weather Information & NOTAM
ADDS - METARS form results

(0326 UTC 18 November 2018)
Data provider http://aviationweather.gov/metar/data/
 
METAR text: ENHD 180320Z AUTO 15004KT 9000 OVC014/// 06/04 Q1040
Conditions at: ENHD (HAUGESUND/KARMOY, NO) observed 0320 UTC 18 November 2018
Temperature: 6.0°C (43°F)
Dewpoint: 4.0°C (39°F) [RH = 87%]
Pressure (altimeter): 30.71 inches Hg (1040.0 mb)
Winds: from the SSE (150 degrees) at 5 MPH (4 knots; 2.1 m/s)
Visibility: 6 miles ( 9 km)
Ceiling: 1400 feet AGL
Clouds: overcast cloud deck at 1400 feet AGL
Weather: no significant weather observed at this time

METAR text: ENHD 180250Z AUTO 13005KT 9999 OVC014/// 06/04 Q1040
Conditions at: ENHD (HAUGESUND/KARMOY, NO) observed 0250 UTC 18 November 2018
Temperature: 6.0°C (43°F)
Dewpoint: 4.0°C (39°F) [RH = 87%]
Pressure (altimeter): 30.71 inches Hg (1040.0 mb)
Winds: from the SE (130 degrees) at 6 MPH (5 knots; 2.6 m/s)
Visibility: 6 or more miles (10+ km)
Ceiling: 1400 feet AGL
Clouds: overcast cloud deck at 1400 feet AGL
Weather: no significant weather observed at this time

Forecast for: ENHD (HAUGESUND/KARMOY, NO)
Text: TAF ENHD 171700Z 1718/1722 14005KT 9000 FEW015
Forecast period: 1800 to 2200 UTC 17 November 2018
Forecast type: FROM: standard forecast or significant change
Winds: from the SE (140 degrees) at 6 MPH (5 knots; 2.6 m/s)
Visibility: 6 miles (9 km)
Ceiling: at least 12,000 feet AGL
Clouds: few clouds at 1500 feet AGL
Weather: no significant weather forecast for this period
Text: PROB30 1718/1722 1500 BCFG BKN004
Forecast period: 1800 to 2200 UTC 17 November 2018
Forecast type: PROBABLE: 30 percent likelihood of the following during this time
Visibility: 0.93 miles (1.50 km)
Ceiling: 400 feet AGL
Clouds: broken clouds at 400 feet AGL
Weather: BCFG  (patches of fog)